Airfield :
LOGIN :

Register | Disclaimer

   EN    FR    IT 

 










Legend :    VFR   Marginal VFR   IFR   Intensive IFR   Very Intensive IFR
Visi :
Ceiling :
>= 8 km
>= 3000ft
5 to 8 km
1000 to 3000 ft
1500m to 5 km
500 to 1000 ft
800 to 1500m
200 to 500 ft
< 800m
< 200 ft
Symbols :   Thunderstorms  Fog  Heavy snow  Heavy precipitations  Wind > 20 kt
SIGMETs :     Misc.  Thunderstorms  Icing  Turbulence  Mountain Waves  Volcanic Ashes






- Airport Elevation : 782 ft
- IATA code : BGY


LIME - Orio al Serio International - Bergamo

CURRENT METAR :
  • 110450Z 09003KT 9000 RA BKN030 08/08 Q1017 NOSIG

EXPIRED METARs :
  • 110420Z 11002KT 9000 RA BKN040 08/08 Q1016 NOSIG
  • 110350Z 10002KT 8000 RA BKN040 08/08 Q1017 NOSIG
  • 110320Z VRB02KT 8000 RA BKN040 08/08 Q1017 NOSIG
  • 110250Z 05003KT 8000 RA BKN035 08/08 Q1017 NOSIG
  • 110220Z 05004KT 7000 RA BKN040 08/08 Q1017 NOSIG
  • 110150Z 03004KT 7000 RA BKN040 08/08 Q1017 NOSIG

TAF TAF LIME
Valid from the 11 at 00:00 until the 12 at 00:00 UTC


102300Z 1100/1124 VRB05KT 6000 RA SCT030 BKN060
TEMPO 1117/1124 4000 SHRA



MET'MAP, your aeronautical weather chart ! - Copyright ORBIFLY December 2007 - Disclaimer

ORBIFLY MET'MAP TEAM :

Programming & Development : Alexandra Zaïnal
Concept & original design : Baudouin d'Aumeries
Assistance for programming : Marc-Olivier Méhu
Technical & hardware support : Manuel Goepfert

Contact : metmap@orbifly.com




SOURCES & CREDITS :

   NOAA